D/T METAR WX W/DIR W/SPE G/SPE TEMP DEWP
23/03/19 12:20 EGPN 231220Z 28010KT 9999 FEW040 11/00 Q1029 W (280°) 11.5mph 11°C 0°C
23/03/19 11:50 EGPN 231150Z 27013KT 9999 FEW035 10/01 Q1029 W (270°) 15.0mph 10°C 1°C
23/03/19 11:20 EGPN 231120Z 27012KT 9999 FEW035 09/03 Q1029 W (270°) 13.8mph 9°C 3°C
23/03/19 10:50 EGPN 231050Z 28013KT 9999 FEW035 10/01 Q1028 W (280°) 15.0mph 10°C 1°C
23/03/19 10:20 EGPN 231020Z 28014KT 9999 FEW028 09/00 Q1028 W (280°) 16.1mph 9°C 0°C
23/03/19 09:50 EGPN 230950Z 27017KT 9999 FEW028 09/02 Q1028 W (270°) 19.6mph 9°C 2°C
23/03/19 09:20 EGPN 230920Z 27013KT 9999 FEW020 08/03 Q1028 W (270°) 15.0mph 8°C 3°C
23/03/19 08:50 EGPN 230850Z 27016KT CAVOK 07/02 Q1027 W (270°) 18.4mph 7°C 2°C
23/03/19 08:20 EGPN 230820Z 26014KT CAVOK 06/02 Q1027 W (260°) 16.1mph 6°C 2°C
22/03/19 20:20 EGPN 222020Z 27023KT 9999 FEW030 07/04 Q1019 W (270°) 26.5mph 7°C 4°C
22/03/19 19:50 EGPN 221950Z 27022KT 9999 FEW030 08/04 Q1019 W (270°) 25.3mph 8°C 4°C
22/03/19 19:20 EGPN 221920Z 27019KT 9999 FEW030 08/03 Q1018 W (270°) 21.9mph 8°C 3°C
22/03/19 18:50 EGPN 221850Z 26023KT 9999 FEW030 08/03 Q1018 W (260°) 26.5mph 8°C 3°C
22/03/19 18:20 EGPN 221820Z 27019KT 9999 FEW030 09/04 Q1017 W (270°) 21.9mph 9°C 4°C
22/03/19 17:50 EGPN 221750Z 26017KT 9999 FEW030 09/05 Q1017 W (260°) 19.6mph 9°C 5°C
22/03/19 17:20 EGPN 221720Z 26024KT 9999 FEW010 SCT030 10/05 Q1016 W (260°) 27.6mph 10°C 5°C
22/03/19 16:50 EGPN 221650Z 26019KT 9999 FEW010 SCT030 10/06 Q1016 W (260°) 21.9mph 10°C 6°C
22/03/19 16:20 EGPN 221620Z 26022KT 9999 -SHRA FEW010 SCT030 09/07 Q1016 -SHRA W (260°) 25.3mph 9°C 7°C
22/03/19 15:50 EGPN 221550Z 26017KT 9999 FEW024 10/06 Q1015 W (260°) 19.6mph 10°C 6°C
22/03/19 15:20 EGPN 221520Z 26021KT 9999 FEW010 SCT023 10/07 Q1015 W (260°) 24.2mph 10°C 7°C
22/03/19 14:50 EGPN 221450Z 26018KT 9999 FEW010 SCT023 10/07 Q1015 W (260°) 20.7mph 10°C 7°C
22/03/19 14:20 EGPN 221420Z 26017KT 9999 -SHRA FEW010 BKN023 10/07 Q1015 -SHRA W (260°) 19.6mph 10°C 7°C
22/03/19 13:50 EGPN 221350Z 25017KT 9999 -SHRA SCT018 BKN038 10/08 Q1015 -SHRA WSW (250°) 19.6mph 10°C 8°C
22/03/19 13:20 EGPN 221320Z 24021KT 9999 -SHRA SCT018 BKN035 11/08 Q1015 -SHRA WSW (240°) 24.2mph 11°C 8°C
22/03/19 12:50 EGPN 221250Z 24019KT 9000 -SHRA SCT020 BKN035 11/09 Q1015 -SHRA WSW (240°) 21.9mph 11°C 9°C
22/03/19 12:20 EGPN 221220Z 23016KT 9000 -SHRA SCT022 BKN035 11/08 Q1015 -SHRA SW (230°) 18.4mph 11°C 8°C
22/03/19 11:50 EGPN 221150Z 23017KT 9000 -SHRA SCT022 BKN035 11/09 Q1015 -SHRA SW (230°) 19.6mph 11°C 9°C
22/03/19 11:20 EGPN 221120Z 24022KT 9999 BKN022 12/09 Q1015 WSW (240°) 25.3mph 12°C 9°C
22/03/19 10:50 EGPN 221050Z 24021G31KT 9999 BKN022 12/08 Q1015 WSW (240°) 24.2mph 35.7mph 12°C 8°C
22/03/19 10:20 EGPN 221020Z 23018KT 9999 SCT020 SCT038 11/08 Q1015 SW (230°) 20.7mph 11°C 8°C
22/03/19 09:50 EGPN 220950Z 23017KT 9999 SCT020 SCT038 11/08 Q1016 SW (230°) 19.6mph 11°C 8°C
22/03/19 09:20 EGPN 220920Z 23022KT 9999 SCT020 SCT038 11/08 Q1016 SW (230°) 25.3mph 11°C 8°C
22/03/19 08:50 EGPN 220850Z 24025KT 9999 SCT020 SCT038 11/08 Q1016 WSW (240°) 28.8mph 11°C 8°C
22/03/19 08:20 EGPN 220820Z 24026G37KT 9999 SCT020 SCT038 11/08 Q1017 WSW (240°) 29.9mph 42.6mph 11°C 8°C
22/03/19 07:50 EGPN 220750Z 24021KT 9999 SCT020 SCT040 10/08 Q1017 WSW (240°) 24.2mph 10°C 8°C
22/03/19 07:20 EGPN 220720Z 25016KT 9999 SCT018 SCT030 10/08 Q1017 WSW (250°) 18.4mph 10°C 8°C
22/03/19 06:50 EGPN 220650Z 25016KT 9999 SCT018 BKN030 10/08 Q1018 WSW (250°) 18.4mph 10°C 8°C
22/03/19 06:20 EGPN 220620Z 24016KT 9999 BKN018 10/08 Q1018 WSW (240°) 18.4mph 10°C 8°C
21/03/19 20:20 EGPN 212020Z 00000KT 9999 FEW015 BKN018 13/10 Q1026 N (0°) 13°C 10°C
21/03/19 19:50 EGPN 211950Z 00000KT 9999 FEW015 BKN020 12/10 Q1026 N (0°) 12°C 10°C
21/03/19 18:50 EGPN 211850Z 27003KT 9999 FEW015 BKN030 11/09 Q1027 W (270°) 3.5mph 11°C 9°C
21/03/19 18:20 EGPN 211820Z 24007KT 9999 FEW015 BKN030 10/09 Q1027 WSW (240°) 8.1mph 10°C 9°C
21/03/19 17:50 EGPN 211750Z 25009KT 9999 FEW015 SCT030 10/09 Q1027 WSW (250°) 10.4mph 10°C 9°C
21/03/19 17:20 EGPN 211720Z 25010KT 9999 FEW028 10/09 Q1027 WSW (250°) 11.5mph 10°C 9°C
21/03/19 16:50 EGPN 211650Z 27007KT 9999 FEW028 12/09 Q1027 W (270°) 8.1mph 12°C 9°C
21/03/19 16:20 EGPN 211620Z 26006KT 9999 FEW023 11/09 Q1027 W (260°) 6.9mph 11°C 9°C
21/03/19 15:50 EGPN 211550Z 26010KT 9999 FEW022 11/09 Q1027 W (260°) 11.5mph 11°C 9°C
21/03/19 14:50 EGPN 211450Z 26006KT 9999 FEW022 11/09 Q1027 W (260°) 6.9mph 11°C 9°C
21/03/19 14:20 EGPN 211420Z 27007KT 9999 FEW022 12/09 Q1028 W (270°) 8.1mph 12°C 9°C
21/03/19 13:50 EGPN 211350Z 25008KT 9999 FEW025 SCT045 11/09 Q1028 WSW (250°) 9.2mph 11°C 9°C
21/03/19 13:20 EGPN 211320Z 25011KT 9999 FEW025 SCT045 11/09 Q1028 WSW (250°) 12.7mph 11°C 9°C
21/03/19 12:50 EGPN 211250Z 24010KT 9999 FEW025 SCT045 12/09 Q1028 WSW (240°) 11.5mph 12°C 9°C
21/03/19 12:20 EGPN 211220Z 26011KT 9999 FEW020 SCT045 13/10 Q1028 W (260°) 12.7mph 13°C 10°C
21/03/19 11:50 EGPN 211150Z 26011KT 9999 FEW020 SCT045 13/10 Q1027 W (260°) 12.7mph 13°C 10°C
21/03/19 11:20 EGPN 211120Z 27014KT 9999 FEW020 SCT045 13/10 Q1027 W (270°) 16.1mph 13°C 10°C
21/03/19 10:50 EGPN 211050Z 26014KT 9999 SCT020 SCT045 13/10 Q1027 W (260°) 16.1mph 13°C 10°C
21/03/19 10:20 EGPN 211020Z 27012KT 9999 SCT020 SCT045 13/11 Q1027 W (270°) 13.8mph 13°C 11°C
21/03/19 09:50 EGPN 210950Z 27014KT 9999 SCT020 SCT045 13/10 Q1027 W (270°) 16.1mph 13°C 10°C
21/03/19 09:20 EGPN 210920Z 24009KT 9999 SCT020 12/10 Q1026 WSW (240°) 10.4mph 12°C 10°C
21/03/19 08:50 EGPN 210850Z 25010KT 9999 SCT020 11/10 Q1026 WSW (250°) 11.5mph 11°C 10°C
21/03/19 08:20 EGPN 210820Z 25011KT 9999 SCT018 11/09 Q1026 WSW (250°) 12.7mph 11°C 9°C
21/03/19 07:50 EGPN 210750Z 25008KT 9999 SCT018 10/09 Q1025 WSW (250°) 9.2mph 10°C 9°C
21/03/19 07:20 EGPN 210720Z 25011KT 9999 SCT018 10/08 Q1025 WSW (250°) 12.7mph 10°C 8°C
21/03/19 06:50 EGPN 210650Z 25009KT 9999 SCT018 10/08 Q1024 WSW (250°) 10.4mph 10°C 8°C
21/03/19 06:20 EGPN 210620Z 25010KT 9999 SCT018 10/08 Q1024 WSW (250°) 11.5mph 10°C 8°C
20/03/19 19:50 EGPN 201950Z 26019KT 9999 SCT022 13/11 Q1022 W (260°) 21.9mph 13°C 11°C
20/03/19 19:20 EGPN 201920Z 26017KT 9999 SCT022 11/10 Q1022 W (260°) 19.6mph 11°C 10°C
20/03/19 18:50 EGPN 201850Z 26015KT 9999 SCT022 11/09 Q1022 W (260°) 17.3mph 11°C 9°C
20/03/19 18:20 EGPN 201820Z 25014KT 9999 SCT022 11/09 Q1022 WSW (250°) 16.1mph 11°C 9°C
20/03/19 17:50 EGPN 201750Z 26013KT 9999 SCT020 11/09 Q1022 W (260°) 15.0mph 11°C 9°C
20/03/19 17:20 EGPN 201720Z 27015KT 9999 SCT020 11/09 Q1022 W (270°) 17.3mph 11°C 9°C
20/03/19 16:50 EGPN 201650Z 27019KT 9999 SCT020 12/09 Q1022 W (270°) 21.9mph 12°C 9°C
20/03/19 16:20 EGPN 201620Z 28014KT 9999 FEW020 12/09 Q1022 W (280°) 16.1mph 12°C 9°C
20/03/19 15:50 EGPN 201550Z 28012KT 9999 FEW022 13/10 Q1022 W (280°) 13.8mph 13°C 10°C
20/03/19 15:20 EGPN 201520Z 27011KT 9999 FEW022 12/09 Q1023 W (270°) 12.7mph 12°C 9°C
20/03/19 14:20 EGPN 201420Z 26010KT 9999 FEW010 SCT020 11/09 Q1023 W (260°) 11.5mph 11°C 9°C
20/03/19 13:50 EGPN 201350Z 27011KT 9999 FEW010 SCT019 12/09 Q1023 W (270°) 12.7mph 12°C 9°C
20/03/19 13:20 EGPN 201320Z 27014KT 9999 FEW010 SCT019 13/10 Q1024 W (270°) 16.1mph 13°C 10°C
20/03/19 12:50 EGPN 201250Z 27016KT 9999 FEW010 SCT019 12/09 Q1024 W (270°) 18.4mph 12°C 9°C
20/03/19 12:20 EGPN 201220Z 26016KT 9999 FEW010 SCT019 11/09 Q1024 W (260°) 18.4mph 11°C 9°C
20/03/19 11:50 EGPN 201150Z 26014KT 9999 FEW010 SCT019 11/09 Q1024 W (260°) 16.1mph 11°C 9°C
20/03/19 11:20 EGPN 201120Z 25012KT 9999 FEW010 BKN019 10/08 Q1024 WSW (250°) 13.8mph 10°C 8°C
20/03/19 10:50 EGPN 201050Z 25010KT 9999 FEW010 BKN019 10/08 Q1025 WSW (250°) 11.5mph 10°C 8°C
20/03/19 09:50 EGPN 200950Z 27007KT 9999 FEW010 SCT016 10/09 Q1025 W (270°) 8.1mph 10°C 9°C
20/03/19 08:50 EGPN 200850Z 25007KT 9999 FEW010 SCT016 09/08 Q1024 WSW (250°) 8.1mph 9°C 8°C
20/03/19 08:20 EGPN 200820Z 25012KT 9999 FEW009 SCT016 09/08 Q1024 WSW (250°) 13.8mph 9°C 8°C
20/03/19 07:50 EGPN 200750Z 25011KT 9999 FEW009 BKN015 09/08 Q1024 WSW (250°) 12.7mph 9°C 8°C
20/03/19 07:20 EGPN 200720Z 26013KT 9999 FEW010 BKN016 09/08 Q1024 W (260°) 15.0mph 9°C 8°C
20/03/19 06:50 EGPN 200650Z 25014KT 9999 FEW010 BKN018 09/08 Q1023 WSW (250°) 16.1mph 9°C 8°C
20/03/19 06:20 EGPN 200620Z 25013KT 9999 FEW010 BKN018 08/07 Q1023 WSW (250°) 15.0mph 8°C 7°C
19/03/19 20:20 EGPN 192020Z 27014KT 9999 FEW020 09/08 Q1021 W (270°) 16.1mph 9°C 8°C
19/03/19 19:50 EGPN 191950Z 28014KT 9999 FEW020 10/08 Q1020 W (280°) 16.1mph 10°C 8°C
19/03/19 19:20 EGPN 191920Z 27013KT 9999 FEW020 SCT034 10/08 Q1020 W (270°) 15.0mph 10°C 8°C
19/03/19 18:50 EGPN 191850Z 28015KT 9999 FEW020 SCT034 11/08 Q1019 W (280°) 17.3mph 11°C 8°C
19/03/19 18:20 EGPN 191820Z 27013KT 9999 FEW020 SCT034 10/08 Q1019 W (270°) 15.0mph 10°C 8°C
19/03/19 17:50 EGPN 191750Z 26016KT 9999 FEW018 SCT024 10/08 Q1018 W (260°) 18.4mph 10°C 8°C
19/03/19 17:20 EGPN 191720Z 27012KT 9999 FEW018 SCT024 10/08 Q1019 W (270°) 13.8mph 10°C 8°C
19/03/19 16:50 EGPN 191650Z 27011KT 9999 FEW018 SCT024 10/08 Q1018 W (270°) 12.7mph 10°C 8°C
19/03/19 16:20 EGPN 191620Z 26015KT 9999 FEW018 SCT024 09/08 Q1018 W (260°) 17.3mph 9°C 8°C
19/03/19 15:50 EGPN 191550Z 26015KT 9999 FEW018 SCT024 09/08 Q1018 W (260°) 17.3mph 9°C 8°C
19/03/19 15:20 EGPN 191520Z 26016KT 9999 FEW018 BKN024 09/07 Q1018 W (260°) 18.4mph 9°C 7°C
19/03/19 14:50 EGPN 191450Z 27017KT 9999 FEW018 BKN024 10/08 Q1018 W (270°) 19.6mph 10°C 8°C
19/03/19 13:50 EGPN 191350Z 26010KT 9999 FEW017 BKN020 09/07 Q1019 W (260°) 11.5mph 9°C 7°C
19/03/19 13:20 EGPN 191320Z 25011KT 9999 FEW017 BKN020 09/07 Q1018 WSW (250°) 12.7mph 9°C 7°C
19/03/19 12:50 EGPN 191250Z 25015KT 9999 FEW017 BKN020 08/07 Q1019 WSW (250°) 17.3mph 8°C 7°C
19/03/19 11:50 EGPN 191150Z 26009KT 9999 FEW018 BKN024 09/06 Q1019 W (260°) 10.4mph 9°C 6°C
19/03/19 11:20 EGPN 191120Z 25006KT 9999 FEW018 BKN021 09/06 Q1019 WSW (250°) 6.9mph 9°C 6°C
19/03/19 10:20 EGPN 191020Z 26008KT 9999 FEW012 BKN022 08/06 Q1019 W (260°) 9.2mph 8°C 6°C
19/03/19 09:50 EGPN 190950Z 24009KT 9999 FEW012 SCT030 08/06 Q1019 WSW (240°) 10.4mph 8°C 6°C
19/03/19 09:20 EGPN 190920Z VRB02KT 9999 FEW012 SCT030 08/07 Q1019 N (0°) 2.3mph 8°C 7°C
19/03/19 08:50 EGPN 190850Z 26002KT 9999 -RA FEW007 SCT045 07/06 Q1020 -RA W (260°) 2.3mph 7°C 6°C
19/03/19 08:20 EGPN 190820Z VRB03KT 9999 FEW007 SCT045 07/06 Q1020 N (0°) 3.5mph 7°C 6°C
19/03/19 07:50 EGPN 190750Z 28003KT 9999 FEW007 SCT045 06/06 Q1020 W (280°) 3.5mph 6°C 6°C
19/03/19 07:20 EGPN 190720Z 31002KT 9000 FEW008 SCT045 06/05 Q1020 NW (310°) 2.3mph 6°C 5°C
19/03/19 06:50 EGPN 190650Z 00000KT 8000 FEW008 SCT018 BKN045 05/04 Q1020 N (0°) 5°C 4°C
19/03/19 06:20 EGPN 190620Z 00000KT 7000 FEW007 SCT018 BKN045 05/04 Q1020 N (0°) 5°C 4°C
18/03/19 20:20 EGPN 182020Z VRB03KT 9999 FEW028 BKN038 07/05 Q1019 N (0°) 3.5mph 7°C 5°C
18/03/19 19:50 EGPN 181950Z 30002KT 9999 FEW028 BKN038 07/05 Q1019 WNW (300°) 2.3mph 7°C 5°C
18/03/19 19:20 EGPN 181920Z 29002KT 9999 FEW028 BKN038 06/04 Q1019 WNW (290°) 2.3mph 6°C 4°C
18/03/19 18:50 EGPN 181850Z 00000KT 9999 FEW028 BKN036 07/05 Q1019 N (0°) 7°C 5°C
18/03/19 17:50 EGPN 181750Z 29002KT 9999 FEW028 BKN036 08/05 Q1018 WNW (290°) 2.3mph 8°C 5°C
18/03/19 17:20 EGPN 181720Z 00000KT 9999 FEW015 SCT040 08/05 Q1018 N (0°) 8°C 5°C
18/03/19 16:50 EGPN 181650Z 27002KT 9999 FEW015 SCT040 08/05 Q1017 W (270°) 2.3mph 8°C 5°C
18/03/19 16:20 EGPN 181620Z 25004KT 9999 FEW015 SCT040 08/05 Q1017 WSW (250°) 4.6mph 8°C 5°C
18/03/19 15:50 EGPN 181550Z 25005KT 9999 FEW015 SCT040 08/05 Q1017 WSW (250°) 5.8mph 8°C 5°C
18/03/19 15:20 EGPN 181520Z 27003KT 9999 FEW015 SCT040 08/05 Q1017 W (270°) 3.5mph 8°C 5°C
18/03/19 14:50 EGPN 181450Z 26004KT 9999 FEW015 SCT040 09/05 Q1017 W (260°) 4.6mph 9°C 5°C
18/03/19 14:20 EGPN 181420Z 00000KT 9999 FEW015 SCT040 09/04 Q1016 N (0°) 9°C 4°C
18/03/19 13:50 EGPN 181350Z 00000KT 9999 FEW015 SCT040 09/04 Q1016 N (0°) 9°C 4°C
18/03/19 13:20 EGPN 181320Z 27002KT 9999 FEW015 SCT040 08/04 Q1016 W (270°) 2.3mph 8°C 4°C
18/03/19 12:50 EGPN 181250Z 00000KT 9999 FEW015 SCT040 08/03 Q1016 N (0°) 8°C 3°C
18/03/19 12:20 EGPN 181220Z 00000KT 9999 FEW015 SCT040 08/04 Q1016 N (0°) 8°C 4°C
18/03/19 11:50 EGPN 181150Z 24003KT 9999 SCT015 08/04 Q1016 WSW (240°) 3.5mph 8°C 4°C
18/03/19 11:20 EGPN 181120Z 21003KT 9999 FEW015 07/03 Q1016 SSW (210°) 3.5mph 7°C 3°C
18/03/19 10:50 EGPN 181050Z 23004KT 9999 FEW015 07/04 Q1016 SW (230°) 4.6mph 7°C 4°C
18/03/19 10:20 EGPN 181020Z 00000KT 9999 FEW010 06/02 Q1016 N (0°) 6°C 2°C
18/03/19 09:50 EGPN 180950Z 27002KT 9999 FEW010 06/02 Q1016 W (270°) 2.3mph 6°C 2°C
18/03/19 09:20 EGPN 180920Z 25003KT CAVOK 05/01 Q1015 WSW (250°) 3.5mph 5°C 1°C
18/03/19 08:50 EGPN 180850Z 25003KT CAVOK 05/01 Q1015 WSW (250°) 3.5mph 5°C 1°C
18/03/19 08:20 EGPN 180820Z 26002KT CAVOK 04/01 Q1015 W (260°) 2.3mph 4°C 1°C
18/03/19 07:50 EGPN 180750Z 00000KT CAVOK 03/00 Q1015 N (0°) 3°C 0°C
18/03/19 07:20 EGPN 180720Z 00000KT CAVOK 03/M01 Q1014 N (0°) 3°C -1°C
18/03/19 06:50 EGPN 180650Z 32004KT CAVOK 02/M01 Q1014 NW (320°) 4.6mph 2°C -1°C
18/03/19 06:20 EGPN 180620Z 31003KT CAVOK 00/M02 Q1014 NW (310°) 3.5mph 0°C -2°C